createdAt,value
2023-03-25T00:02:24.917Z,1.70
2023-03-25T00:04:53.673Z,1.80
2023-03-25T00:07:22.857Z,1.50
2023-03-25T00:09:51.088Z,1.33
2023-03-25T00:12:19.794Z,1.53
2023-03-25T00:14:55.270Z,1.40
2023-03-25T00:17:26.487Z,1.43
2023-03-25T00:19:55.513Z,1.33
2023-03-25T00:22:24.490Z,1.40
2023-03-25T00:24:52.458Z,1.77
2023-03-25T00:27:20.657Z,1.70
2023-03-25T00:29:48.672Z,1.40
2023-03-25T00:32:17.205Z,1.33
2023-03-25T00:34:48.153Z,1.77
2023-03-25T00:37:18.306Z,1.20
2023-03-25T00:39:46.813Z,1.30
2023-03-25T00:42:17.599Z,1.30
2023-03-25T00:44:45.568Z,1.30
2023-03-25T00:47:18.353Z,1.50
2023-03-25T00:49:47.731Z,1.30
2023-03-25T00:52:15.997Z,1.70
2023-03-25T00:54:45.783Z,1.47
2023-03-25T00:57:13.890Z,1.57
2023-03-25T00:59:41.928Z,1.80
2023-03-25T01:02:10.382Z,1.83
2023-03-25T01:04:41.438Z,1.70
2023-03-25T01:07:11.418Z,1.93
2023-03-25T01:09:41.480Z,2.10
2023-03-25T01:12:09.856Z,1.60
2023-03-25T01:14:37.900Z,1.90
2023-03-25T01:17:06.731Z,1.80
2023-03-25T01:19:34.784Z,1.73
2023-03-25T01:22:02.993Z,2.03
2023-03-25T01:24:32.608Z,1.77
2023-03-25T01:27:00.681Z,1.87
2023-03-25T01:29:28.863Z,1.70
2023-03-25T01:31:57.061Z,1.70
2023-03-25T01:34:25.996Z,1.77
2023-03-25T01:36:55.556Z,1.83
2023-03-25T01:39:24.039Z,1.90
2023-03-25T01:41:55.216Z,2.10
2023-03-25T01:45:00.537Z,2.00
2023-03-25T01:47:29.015Z,2.23
2023-03-25T01:49:57.223Z,2.40
2023-03-25T01:52:29.607Z,1.93
2023-03-25T01:54:59.694Z,2.13
2023-03-25T01:57:31.485Z,2.27
2023-03-25T01:59:59.862Z,2.87
2023-03-25T02:02:34.906Z,2.70
2023-03-25T02:05:10.536Z,2.17
2023-03-25T02:07:46.868Z,2.20
2023-03-25T02:10:16.743Z,2.37
2023-03-25T02:12:47.131Z,2.37
2023-03-25T02:15:17.894Z,2.10
2023-03-25T02:18:17.494Z,2.80
2023-03-25T02:21:23.319Z,2.20
2023-03-25T02:24:54.001Z,2.50
2023-03-25T02:27:28.308Z,2.20
2023-03-25T02:30:11.654Z,2.27
2023-03-25T02:32:56.934Z,1.87
2023-03-25T02:35:39.694Z,2.47
2023-03-25T02:38:36.739Z,2.00
2023-03-25T02:41:10.698Z,2.30
2023-03-25T02:43:45.792Z,2.17
2023-03-25T02:46:17.434Z,1.90
2023-03-25T02:48:53.754Z,2.00
2023-03-25T02:51:26.095Z,2.17
2023-03-25T02:53:57.628Z,2.27
2023-03-25T02:56:29.378Z,2.60
2023-03-25T02:58:58.550Z,2.13
2023-03-25T03:01:27.309Z,2.10
2023-03-25T03:03:55.333Z,2.10
2023-03-25T03:06:25.834Z,2.50
2023-03-25T03:09:12.772Z,2.20
2023-03-25T03:11:49.233Z,1.97
2023-03-25T03:14:35.748Z,2.10
2023-03-25T03:17:10.941Z,1.70
2023-03-25T03:19:46.481Z,1.80
2023-03-25T03:22:25.799Z,1.70
2023-03-25T03:25:03.081Z,2.00
2023-03-25T03:27:34.421Z,2.30
2023-03-25T03:30:11.547Z,2.03
2023-03-25T03:32:45.650Z,2.00
2023-03-25T03:35:19.216Z,1.80
2023-03-25T03:37:50.887Z,2.13
2023-03-25T03:40:24.278Z,2.37
2023-03-25T03:42:59.346Z,1.80
2023-03-25T03:45:32.406Z,2.00
2023-03-25T03:48:04.359Z,1.87
2023-03-25T03:50:36.605Z,1.70
2023-03-25T03:53:09.300Z,2.10
2023-03-25T03:55:42.819Z,1.80
2023-03-25T03:58:15.722Z,1.93
2023-03-25T04:00:50.736Z,2.00
2023-03-25T04:03:24.664Z,1.50
2023-03-25T04:05:59.857Z,1.93
2023-03-25T04:08:32.210Z,1.93
2023-03-25T04:11:08.039Z,1.90
2023-03-25T04:13:40.490Z,1.80
2023-03-25T04:16:09.178Z,1.70
2023-03-25T04:18:37.326Z,2.00
2023-03-25T04:21:05.949Z,1.70
2023-03-25T04:23:34.770Z,2.03
2023-03-25T04:26:04.835Z,2.17
2023-03-25T04:28:32.930Z,2.13
2023-03-25T04:31:05.538Z,1.93
2023-03-25T04:33:33.553Z,1.90
2023-03-25T04:36:02.226Z,1.80
2023-03-25T04:38:30.444Z,2.57
2023-03-25T04:41:00.410Z,2.30
2023-03-25T04:43:29.785Z,2.43
2023-03-25T04:46:00.157Z,2.43
2023-03-25T04:48:30.928Z,2.50
2023-03-25T04:50:59.988Z,2.70
2023-03-25T04:53:28.542Z,2.37
2023-03-25T04:55:57.092Z,2.20
2023-03-25T04:58:25.095Z,2.67
2023-03-25T05:00:54.494Z,3.07
2023-03-25T05:03:24.456Z,2.37
2023-03-25T05:05:53.501Z,2.47
2023-03-25T05:08:22.809Z,2.50
2023-03-25T05:10:51.144Z,2.27
2023-03-25T05:13:19.157Z,2.10
2023-03-25T05:15:48.551Z,2.27
2023-03-25T05:18:18.353Z,2.60
2023-03-25T05:20:50.975Z,2.70
2023-03-25T05:23:19.527Z,2.50
2023-03-25T05:25:48.876Z,2.10
2023-03-25T05:28:17.703Z,2.37
2023-03-25T05:30:47.339Z,2.20
2023-03-25T05:33:18.944Z,2.60
2023-03-25T05:35:47.434Z,2.20
2023-03-25T05:38:18.408Z,2.50
2023-03-25T05:40:47.491Z,2.30
2023-03-25T05:43:16.224Z,2.40
2023-03-25T05:45:45.086Z,2.30
2023-03-25T05:48:13.114Z,2.30
2023-03-25T05:50:42.832Z,2.10
2023-03-25T05:53:13.452Z,2.40
2023-03-25T05:55:41.458Z,2.20
2023-03-25T05:58:09.499Z,2.20
2023-03-25T06:00:37.546Z,1.93
2023-03-25T06:03:08.032Z,3.13
2023-03-25T06:05:36.611Z,2.03
2023-03-25T06:08:06.319Z,2.00
2023-03-25T06:10:34.424Z,2.50
2023-03-25T06:13:02.522Z,2.20
2023-03-25T06:15:33.428Z,2.30
2023-03-25T06:18:01.622Z,2.10
2023-03-25T06:20:29.716Z,2.03
2023-03-25T06:23:00.235Z,2.17
2023-03-25T06:25:31.109Z,2.03
2023-03-25T06:28:03.777Z,1.77
2023-03-25T06:30:31.897Z,1.83
2023-03-25T06:33:02.993Z,1.67
2023-03-25T06:35:31.273Z,2.17
2023-03-25T06:37:59.258Z,1.27
2023-03-25T06:40:27.289Z,1.53
2023-03-25T06:42:56.684Z,1.20
2023-03-25T06:45:24.697Z,1.33
2023-03-25T06:47:52.689Z,1.47
2023-03-25T06:50:20.729Z,1.10
2023-03-25T06:52:48.684Z,1.30
2023-03-25T06:55:17.451Z,1.20
2023-03-25T06:57:45.728Z,0.83
2023-03-25T07:00:20.216Z,1.20
2023-03-25T07:02:48.413Z,1.00
2023-03-25T07:05:16.732Z,1.10
2023-03-25T07:07:44.789Z,0.80
2023-03-25T07:10:13.934Z,1.07
2023-03-25T07:12:41.927Z,0.90
2023-03-25T07:15:10.710Z,0.93
2023-03-25T07:17:40.118Z,1.10
2023-03-25T07:20:11.470Z,1.03
2023-03-25T07:22:40.544Z,0.83
2023-03-25T07:25:09.340Z,1.30
2023-03-25T07:27:37.311Z,1.00
2023-03-25T07:30:05.988Z,1.30
2023-03-25T07:32:34.105Z,0.80
2023-03-25T07:35:03.771Z,0.90
2023-03-25T07:37:31.835Z,0.90
2023-03-25T07:39:59.808Z,0.80
2023-03-25T07:42:27.771Z,0.70
2023-03-25T07:44:55.788Z,0.53
2023-03-25T07:47:23.801Z,0.60
2023-03-25T07:49:51.992Z,0.40
2023-03-25T07:52:21.478Z,0.87
2023-03-25T07:54:49.432Z,0.50
2023-03-25T07:57:17.449Z,1.00
2023-03-25T07:59:45.401Z,0.50
2023-03-25T08:02:14.625Z,0.40
2023-03-25T08:04:42.758Z,0.40
2023-03-25T08:07:10.780Z,0.70
2023-03-25T08:09:40.305Z,0.67
2023-03-25T08:12:09.519Z,0.97
2023-03-25T08:14:37.524Z,0.40
2023-03-25T08:17:06.366Z,0.70
2023-03-25T08:19:34.720Z,0.50
2023-03-25T08:22:02.701Z,0.43
2023-03-25T08:25:15.041Z,0.50
2023-03-25T08:27:44.368Z,0.80
2023-03-25T08:30:13.530Z,0.60
2023-03-25T08:32:41.540Z,0.40
2023-03-25T08:35:10.150Z,0.50
2023-03-25T08:37:38.473Z,0.50
2023-03-25T08:40:09.131Z,0.43
2023-03-25T08:42:37.521Z,0.90
2023-03-25T08:45:08.032Z,0.50
2023-03-25T08:47:36.033Z,0.40
2023-03-25T08:50:04.649Z,0.70
2023-03-25T08:52:32.788Z,0.60
2023-03-25T08:55:00.908Z,0.57
2023-03-25T08:57:28.967Z,0.60
2023-03-25T08:59:56.943Z,0.90
2023-03-25T09:02:30.168Z,0.70
2023-03-25T09:04:58.193Z,0.70
2023-03-25T09:07:26.516Z,0.60
2023-03-25T09:09:54.457Z,0.60
2023-03-25T09:12:33.068Z,0.57
2023-03-25T09:15:01.246Z,1.00
2023-03-25T09:17:30.593Z,0.60
2023-03-25T09:19:59.067Z,0.70
2023-03-25T09:22:27.962Z,0.60
2023-03-25T09:24:55.947Z,0.53
2023-03-25T09:27:24.002Z,0.50
2023-03-25T09:29:51.994Z,0.60
2023-03-25T09:32:19.980Z,0.50
2023-03-25T09:34:49.303Z,0.50
2023-03-25T09:37:17.308Z,0.60
2023-03-25T09:39:45.301Z,0.60
2023-03-25T09:42:29.459Z,0.50
2023-03-25T09:45:11.165Z,0.70
2023-03-25T09:47:43.854Z,0.70
2023-03-25T09:50:16.110Z,0.40
2023-03-25T09:52:51.998Z,0.70
2023-03-25T09:55:26.263Z,0.80
2023-03-25T09:58:01.520Z,0.77
2023-03-25T10:00:29.561Z,0.50
2023-03-25T10:03:09.162Z,0.70
2023-03-25T10:06:03.710Z,0.50
2023-03-25T10:08:44.898Z,0.60
2023-03-25T10:11:19.910Z,0.47
2023-03-25T10:13:55.493Z,0.40
2023-03-25T10:16:32.625Z,0.40
2023-03-25T10:19:15.470Z,0.70
2023-03-25T10:21:53.940Z,0.60
2023-03-25T10:24:25.671Z,0.70
2023-03-25T10:26:58.543Z,1.40
2023-03-25T10:29:32.906Z,0.50
2023-03-25T10:32:06.358Z,0.80
2023-03-25T10:34:39.516Z,0.30
2023-03-25T10:37:13.559Z,0.37
2023-03-25T10:40:25.409Z,0.20
2023-03-25T10:43:05.083Z,0.30
2023-03-25T10:45:35.165Z,0.30
2023-03-25T10:48:08.232Z,0.50
2023-03-25T10:50:36.944Z,0.60
2023-03-25T10:53:07.146Z,0.40
2023-03-25T10:55:37.271Z,0.40
2023-03-25T10:58:05.965Z,0.40
2023-03-25T11:00:34.198Z,0.40
2023-03-25T11:03:05.334Z,0.50
2023-03-25T11:05:35.677Z,0.30
2023-03-25T11:08:18.520Z,0.30
2023-03-25T11:10:57.420Z,0.30
2023-03-25T11:13:27.889Z,0.40
2023-03-25T11:15:59.660Z,0.50
2023-03-25T11:18:30.995Z,0.50
2023-03-25T11:21:03.820Z,0.60
2023-03-25T11:23:35.668Z,0.40
2023-03-25T11:26:07.493Z,0.30
2023-03-25T11:28:42.292Z,0.47
2023-03-25T11:31:14.028Z,0.53
2023-03-25T11:33:43.503Z,0.53
2023-03-25T11:36:22.943Z,0.47
2023-03-25T11:38:58.604Z,0.50
2023-03-25T11:41:31.440Z,0.40
2023-03-25T11:43:59.810Z,0.40
2023-03-25T11:46:27.909Z,0.50
2023-03-25T11:48:56.046Z,0.33
2023-03-25T11:51:26.196Z,1.63
2023-03-25T11:53:59.509Z,0.57
2023-03-25T11:56:33.846Z,0.50
2023-03-25T11:59:03.211Z,0.60
2023-03-25T12:01:41.918Z,0.70
2023-03-25T12:04:15.376Z,0.47
2023-03-25T12:06:58.381Z,0.40
2023-03-25T12:09:30.601Z,0.40
2023-03-25T12:12:23.122Z,0.50
2023-03-25T12:15:04.918Z,0.23
2023-03-25T12:17:47.362Z,0.67
2023-03-25T12:20:24.926Z,0.47
2023-03-25T12:23:01.868Z,0.80
2023-03-25T12:25:39.740Z,0.50
2023-03-25T12:28:35.090Z,0.50
2023-03-25T12:31:08.882Z,0.50
2023-03-25T12:33:48.054Z,0.60
2023-03-25T12:36:42.270Z,0.43
2023-03-25T12:39:41.594Z,0.50
2023-03-25T12:42:21.923Z,0.40
2023-03-25T12:45:04.648Z,0.40
2023-03-25T12:47:37.488Z,0.50
2023-03-25T12:50:22.820Z,0.70
2023-03-25T12:52:57.969Z,1.00
2023-03-25T12:55:45.364Z,0.73
2023-03-25T12:58:35.531Z,0.60
2023-03-25T13:01:13.542Z,0.60
2023-03-25T13:03:54.878Z,0.50
2023-03-25T13:06:31.075Z,0.50
2023-03-25T13:09:04.230Z,0.50
2023-03-25T13:11:39.391Z,0.50
2023-03-25T13:14:16.274Z,0.53
2023-03-25T13:16:46.122Z,0.77
2023-03-25T13:19:18.917Z,0.50
2023-03-25T13:21:52.604Z,0.70
2023-03-25T13:24:23.834Z,0.50
2023-03-25T13:26:53.894Z,0.50
2023-03-25T13:29:29.137Z,0.80
2023-03-25T13:32:00.619Z,0.70
2023-03-25T13:34:33.247Z,0.40
2023-03-25T13:37:09.905Z,0.57
2023-03-25T13:39:51.832Z,0.50
2023-03-25T13:42:25.145Z,0.47
2023-03-25T13:44:58.278Z,0.47
2023-03-25T13:47:31.897Z,0.47
2023-03-25T13:50:05.269Z,0.40
2023-03-25T13:52:39.223Z,0.20
2023-03-25T13:55:14.485Z,0.27
2023-03-25T13:58:10.201Z,0.70
2023-03-25T14:01:07.174Z,0.53
2023-03-25T14:04:07.950Z,0.50
2023-03-25T14:06:57.097Z,0.70
2023-03-25T14:09:58.842Z,0.33
2023-03-25T14:12:31.514Z,0.67
2023-03-25T14:15:05.573Z,0.60
2023-03-25T14:17:36.638Z,0.40
2023-03-25T14:20:08.434Z,0.53
2023-03-25T14:22:43.876Z,0.63
2023-03-25T14:25:22.207Z,0.70
2023-03-25T14:27:51.909Z,0.53
2023-03-25T14:30:22.705Z,0.63
2023-03-25T14:32:52.911Z,0.80
2023-03-25T14:35:47.194Z,0.50
2023-03-25T14:38:50.699Z,0.33
2023-03-25T14:41:18.716Z,0.70
2023-03-25T14:43:53.680Z,0.37
2023-03-25T14:46:26.079Z,0.50
2023-03-25T14:49:19.238Z,0.63
2023-03-25T14:51:51.436Z,0.40
2023-03-25T14:54:24.178Z,1.87
2023-03-25T14:57:00.375Z,0.47
2023-03-25T14:59:32.094Z,0.57
2023-03-25T15:02:11.907Z,0.50
2023-03-25T15:04:41.896Z,0.57
2023-03-25T15:07:14.222Z,0.80
2023-03-25T15:09:50.538Z,0.30
2023-03-25T15:12:22.613Z,0.60
2023-03-25T15:14:55.382Z,0.30
2023-03-25T15:17:45.840Z,0.50
2023-03-25T15:20:39.767Z,0.20
2023-03-25T15:23:36.214Z,0.10
2023-03-25T15:26:06.259Z,0.27
2023-03-25T15:28:49.139Z,0.10
2023-03-25T15:31:38.050Z,0.20
2023-03-25T15:34:44.752Z,0.07
2023-03-25T15:37:47.524Z,0.10
2023-03-25T15:40:32.041Z,0.07
2023-03-25T15:43:42.698Z,0.13
2023-03-25T15:46:40.497Z,0.10
2023-03-25T15:49:22.547Z,0.30
2023-03-25T15:52:11.990Z,0.13
2023-03-25T15:54:44.764Z,0.10
2023-03-25T15:57:22.573Z,0.20
2023-03-25T15:59:58.719Z,0.20
2023-03-25T16:02:32.422Z,0.10
2023-03-25T16:05:01.594Z,0.20
2023-03-25T16:07:31.275Z,0.20
2023-03-25T16:10:14.599Z,0.10
2023-03-25T16:12:44.706Z,0.30
2023-03-25T16:15:16.517Z,0.20
2023-03-25T16:17:46.054Z,0.40
2023-03-25T16:20:18.228Z,0.23
2023-03-25T16:22:50.488Z,0.20
2023-03-25T16:25:21.981Z,0.27
2023-03-25T16:27:53.358Z,0.30
2023-03-25T16:30:24.729Z,0.30
2023-03-25T16:32:53.298Z,0.30
2023-03-25T16:35:23.160Z,0.30
2023-03-25T16:37:52.192Z,0.20
2023-03-25T16:40:28.564Z,0.30
2023-03-25T16:43:04.770Z,0.70
2023-03-25T16:45:33.116Z,0.40
2023-03-25T16:48:07.150Z,0.70
2023-03-25T16:50:36.324Z,0.50
2023-03-25T16:53:05.826Z,0.50
2023-03-25T16:55:47.205Z,0.60
2023-03-25T16:58:19.557Z,0.57
2023-03-25T17:00:50.202Z,0.77
2023-03-25T17:03:38.598Z,0.60
2023-03-25T17:06:14.560Z,0.80
2023-03-25T17:08:42.530Z,1.20
2023-03-25T17:11:11.905Z,0.80
2023-03-25T17:13:43.648Z,1.10
2023-03-25T17:16:12.244Z,1.40
2023-03-25T17:18:40.901Z,1.90
2023-03-25T17:21:12.598Z,1.40
2023-03-25T17:23:46.304Z,1.33
2023-03-25T17:26:20.004Z,1.00
2023-03-25T17:28:59.986Z,1.03
2023-03-25T17:31:33.806Z,1.10
2023-03-25T17:34:06.469Z,1.10
2023-03-25T17:36:37.831Z,0.73
2023-03-25T17:39:08.005Z,0.70
2023-03-25T17:41:40.502Z,0.63
2023-03-25T17:44:08.941Z,0.97
2023-03-25T17:46:37.016Z,0.90
2023-03-25T17:49:15.623Z,1.00
2023-03-25T17:51:44.138Z,0.60
2023-03-25T17:54:12.326Z,0.87
2023-03-25T17:56:42.007Z,1.20
2023-03-25T17:59:16.491Z,1.60
2023-03-25T18:01:45.245Z,1.00
2023-03-25T18:04:15.051Z,0.90
2023-03-25T18:06:44.040Z,1.00
2023-03-25T18:09:16.708Z,0.80
2023-03-25T18:11:48.031Z,0.80
2023-03-25T18:14:16.367Z,1.10
2023-03-25T18:16:44.390Z,0.80
2023-03-25T18:19:16.229Z,0.90
2023-03-25T18:21:44.638Z,1.20
2023-03-25T18:24:13.444Z,0.90
2023-03-25T18:26:42.123Z,0.97
2023-03-25T18:29:17.410Z,1.20
2023-03-25T18:31:45.559Z,0.90
2023-03-25T18:34:14.025Z,1.10
2023-03-25T18:36:42.975Z,1.00
2023-03-25T18:39:14.806Z,0.90
2023-03-25T18:41:44.553Z,1.10
2023-03-25T18:44:23.630Z,1.00
2023-03-25T18:46:51.769Z,1.00
2023-03-25T18:49:20.719Z,1.17
2023-03-25T18:51:48.929Z,2.20
2023-03-25T18:54:17.500Z,3.60
2023-03-25T18:56:45.935Z,2.50
2023-03-25T18:59:18.668Z,2.53
2023-03-25T19:01:48.414Z,1.80
2023-03-25T19:04:16.760Z,2.73
2023-03-25T19:06:44.818Z,2.07
2023-03-25T19:09:18.291Z,2.47
2023-03-25T19:11:47.087Z,1.03
2023-03-25T19:14:15.068Z,1.80
2023-03-25T19:16:53.729Z,1.03
2023-03-25T19:19:29.516Z,1.23
2023-03-25T19:21:57.475Z,0.83
2023-03-25T19:24:25.486Z,1.10
2023-03-25T19:26:53.486Z,1.10
2023-03-25T19:29:21.446Z,1.20
2023-03-25T19:31:49.406Z,0.90
2023-03-25T19:34:17.919Z,2.00
2023-03-25T19:36:47.269Z,0.70
2023-03-25T19:39:15.930Z,1.47
2023-03-25T19:41:44.942Z,0.90
2023-03-25T19:44:14.391Z,1.10
2023-03-25T19:46:42.730Z,1.20
2023-03-25T19:49:10.771Z,1.03
2023-03-25T19:51:38.797Z,0.90
2023-03-25T19:54:13.494Z,0.90
2023-03-25T19:56:41.840Z,0.83
2023-03-25T19:59:09.844Z,0.70
2023-03-25T20:01:37.874Z,0.70
2023-03-25T20:04:05.882Z,0.50
2023-03-25T20:06:34.013Z,0.90
2023-03-25T20:09:01.993Z,0.90
2023-03-25T20:11:31.379Z,0.90
2023-03-25T20:13:59.328Z,0.80
2023-03-25T20:16:28.333Z,0.70
2023-03-25T20:18:56.312Z,0.50
2023-03-25T20:21:25.341Z,0.90
2023-03-25T20:23:53.322Z,0.80
2023-03-25T20:26:21.362Z,0.60
2023-03-25T20:28:50.677Z,0.60
2023-03-25T20:31:21.142Z,0.40
2023-03-25T20:33:49.951Z,0.70
2023-03-25T20:36:18.006Z,0.67
2023-03-25T20:38:56.598Z,0.70
2023-03-25T20:41:26.314Z,0.67
2023-03-25T20:43:55.669Z,0.60
2023-03-25T20:46:28.274Z,0.60
2023-03-25T20:48:56.408Z,0.50
2023-03-25T20:51:24.985Z,0.53
2023-03-25T20:53:53.363Z,0.57
2023-03-25T20:56:21.588Z,0.40
2023-03-25T20:58:49.524Z,0.40
2023-03-25T21:01:21.180Z,0.63
2023-03-25T21:03:51.664Z,0.70
2023-03-25T21:06:24.448Z,0.50
2023-03-25T21:08:54.767Z,0.50
2023-03-25T21:11:23.144Z,0.60
2023-03-25T21:13:51.434Z,0.60
2023-03-25T21:16:21.274Z,0.70
2023-03-25T21:18:50.420Z,0.80
2023-03-25T21:21:19.909Z,0.80
2023-03-25T21:23:49.242Z,0.43
2023-03-25T21:26:17.598Z,0.63
2023-03-25T21:28:45.860Z,0.60
2023-03-25T21:31:18.704Z,0.90
2023-03-25T21:33:50.741Z,0.60
2023-03-25T21:36:21.286Z,0.40
2023-03-25T21:38:49.673Z,1.00
2023-03-25T21:41:17.632Z,0.77
2023-03-25T21:43:47.404Z,0.80
2023-03-25T21:46:15.445Z,0.77
2023-03-25T21:48:44.978Z,0.90
2023-03-25T21:51:15.331Z,0.50
2023-03-25T21:53:45.395Z,0.47
2023-03-25T21:56:15.389Z,0.50
2023-03-25T21:58:43.406Z,0.50
2023-03-25T22:01:13.179Z,0.67
2023-03-25T22:03:45.251Z,0.70
2023-03-25T22:06:16.542Z,0.87
2023-03-25T22:08:45.447Z,0.70
2023-03-25T22:11:15.409Z,0.60
2023-03-25T22:13:44.208Z,0.90
2023-03-25T22:16:13.802Z,0.90
2023-03-25T22:18:42.160Z,0.63
2023-03-25T22:21:12.956Z,0.77
2023-03-25T22:23:45.002Z,1.23
2023-03-25T22:26:13.943Z,0.60
2023-03-25T22:28:42.487Z,0.63
2023-03-25T22:31:11.812Z,0.90
2023-03-25T22:33:40.747Z,0.70
2023-03-25T22:36:12.680Z,0.90
2023-03-25T22:38:44.075Z,0.63
2023-03-25T22:41:13.168Z,0.93
2023-03-25T22:43:41.254Z,0.87
2023-03-25T22:46:10.245Z,1.03
2023-03-25T22:48:39.356Z,0.87
2023-03-25T22:51:08.637Z,1.17
2023-03-25T22:53:36.788Z,1.07
2023-03-25T22:56:07.004Z,0.87
2023-03-25T22:58:35.651Z,1.30
2023-03-25T23:01:05.507Z,0.80
2023-03-25T23:03:33.882Z,0.73
2023-03-25T23:06:04.306Z,0.90
2023-03-25T23:08:35.140Z,0.73
2023-03-25T23:11:11.344Z,0.70
2023-03-25T23:13:40.713Z,0.83
2023-03-25T23:16:11.390Z,0.80
2023-03-25T23:18:41.734Z,0.70
2023-03-25T23:21:13.022Z,0.80
2023-03-25T23:23:52.688Z,0.97
2023-03-25T23:26:26.384Z,0.83
2023-03-25T23:28:56.448Z,0.73
2023-03-25T23:31:28.087Z,0.80
2023-03-25T23:33:57.810Z,0.73
2023-03-25T23:36:28.160Z,0.90
2023-03-25T23:38:56.687Z,0.70
2023-03-25T23:41:27.150Z,0.60
2023-03-25T23:43:56.269Z,0.67
2023-03-25T23:46:25.601Z,0.50
2023-03-25T23:48:55.103Z,0.80
2023-03-25T23:51:25.405Z,0.87
2023-03-25T23:53:53.979Z,0.80
2023-03-25T23:56:25.614Z,0.80
2023-03-25T23:58:54.469Z,0.60
